Time;durP1;ratioP1;P1;durP2;ratioP2;P2;SDS_P1;SDS_P2;PMS_P1;PMS_P2;Temp;Humidity;BMP_temperature;BMP_pressure;BME280_temperature;BME280_humidity;BME280_pressure;Samples;Min_cycle;Max_cycle;Signal;HPM_P1;HPM_P2
2023/07/25 00:01:40;;;;;;;1.73;1.63;;;16.80;1.00;;;;;;5076047;28;20449;-75
2023/07/25 00:04:28;;;;;;;2.30;1.80;;;16.80;1.00;;;;;;5075872;28;20442;-76
2023/07/25 00:06:54;;;;;;;1.77;1.67;;;16.90;1.00;;;;;;5076770;28;20402;-76
2023/07/25 00:09:19;;;;;;;5.10;1.90;;;16.90;1.00;;;;;;5072296;28;20465;-75
2023/07/25 00:11:46;;;;;;;1.67;1.57;;;16.90;1.00;;;;;;5076115;28;20678;-75
2023/07/25 00:14:11;;;;;;;3.03;1.50;;;16.90;1.00;;;;;;5076821;28;20190;-76
2023/07/25 00:16:52;;;;;;;1.67;1.37;;;16.90;1.00;;;;;;5071261;28;20418;-76
2023/07/25 00:19:22;;;;;;;9.73;1.90;;;16.90;1.00;;;;;;5077055;28;20520;-76
2023/07/25 00:21:53;;;;;;;1.73;1.53;;;16.90;1.00;;;;;;5075167;28;20401;-75
2023/07/25 00:24:18;;;;;;;2.57;2.00;;;16.90;1.00;;;;;;5068822;28;20442;-75
2023/07/25 00:26:44;;;;;;;5.23;2.30;;;16.90;1.00;;;;;;5070404;28;20412;-76
2023/07/25 00:29:10;;;;;;;1.70;1.60;;;17.00;1.00;;;;;;5071787;28;20191;-76
2023/07/25 00:31:40;;;;;;;3.50;1.60;;;17.00;1.00;;;;;;5075325;28;20226;-76
2023/07/25 00:34:10;;;;;;;8.73;1.93;;;17.00;1.00;;;;;;5068850;28;20195;-75
2023/07/25 00:36:36;;;;;;;8.90;1.77;;;17.00;1.00;;;;;;5056222;28;20804;-75
2023/07/25 00:39:11;;;;;;;5.77;1.73;;;17.00;1.00;;;;;;5070584;28;20442;-76
2023/07/25 00:41:37;;;;;;;2.97;1.70;;;17.00;1.00;;;;;;5073788;28;20184;-75
2023/07/25 00:44:04;;;;;;;3.10;1.80;;;17.00;1.00;;;;;;5064130;28;20773;-75
2023/07/25 00:46:41;;;;;;;3.43;1.67;;;17.00;1.00;;;;;;5067659;28;20389;-75
2023/07/25 00:49:08;;;;;;;2.03;1.43;;;17.10;1.00;;;;;;5075916;28;20435;-76
2023/07/25 00:51:58;;;;;;;2.93;2.00;;;17.10;1.00;;;;;;5076375;28;20405;-84
2023/07/25 01:01:40;;;;;;;1.60;1.50;;;17.10;1.00;;;;;;5075749;28;20446;-84
2023/07/25 01:07:30;;;;;;;3.07;1.93;;;17.20;1.00;;;;;;5061738;28;20405;-84
2023/07/25 01:10:46;;;;;;;7.03;1.93;;;17.20;1.00;;;;;;5075657;28;20469;-84
2023/07/25 01:13:12;;;;;;;3.33;1.70;;;17.30;1.00;;;;;;5054622;28;20418;-85
2023/07/25 01:19:52;;;;;;;2.37;1.93;;;17.30;1.00;;;;;;5069862;28;20187;-84
2023/07/25 01:22:19;;;;;;;14.20;1.97;;;17.20;1.00;;;;;;5075183;28;20409;-76
2023/07/25 01:24:47;;;;;;;4.70;1.63;;;17.30;1.00;;;;;;5075450;28;20491;-76
2023/07/25 01:27:16;;;;;;;1.80;1.70;;;17.30;1.00;;;;;;5075610;28;20480;-76
2023/07/25 01:29:52;;;;;;;4.97;1.70;;;17.30;1.00;;;;;;5061775;28;20426;-76
2023/07/25 01:32:46;;;;;;;9.50;2.00;;;17.30;1.00;;;;;;5074217;28;20442;-76
2023/07/25 01:38:34;;;;;;;5.03;1.90;;;17.30;1.00;;;;;;5075051;28;20380;-84
2023/07/25 01:44:21;;;;;;;8.77;2.10;;;17.30;1.00;;;;;;5055296;28;20195;-85
2023/07/25 01:50:09;;;;;;;7.67;2.70;;;17.20;1.00;;;;;;5075314;28;20235;-75
2023/07/25 01:52:46;;;;;;;6.80;1.47;;;17.20;1.00;;;;;;5066546;28;20484;-76
2023/07/25 01:55:16;;;;;;;8.73;2.03;;;17.30;1.00;;;;;;5071156;28;20294;-75
2023/07/25 01:57:42;;;;;;;10.20;2.07;;;17.30;1.00;;;;;;5060873;28;20911;-75
2023/07/25 02:00:16;;;;;;;1.90;1.80;;;17.30;1.00;;;;;;5071079;28;20391;-75
2023/07/25 02:02:42;;;;;;;6.67;1.97;;;17.30;1.00;;;;;;5072085;28;20208;-75
2023/07/25 02:05:10;;;;;;;4.40;1.87;;;17.30;1.00;;;;;;5071284;28;20910;-75
2023/07/25 02:07:36;;;;;;;5.90;1.60;;;17.30;1.00;;;;;;5055137;28;20548;-84
2023/07/25 02:10:58;;;;;;;1.67;1.57;;;17.30;1.00;;;;;;5068360;28;20467;-84
2023/07/25 02:20:08;;;;;;;2.57;2.00;;;17.30;1.00;;;;;;5074651;28;20411;-84
2023/07/25 02:22:59;;;;;;;4.40;2.07;;;17.30;1.00;;;;;;5073611;28;20468;-84
2023/07/25 02:28:46;;;;;;;2.13;1.87;;;17.30;1.00;;;;;;5074296;28;20574;-84
2023/07/25 02:31:28;;;;;;;5.00;2.00;;;17.40;1.00;;;;;;5069367;28;20547;-84
2023/07/25 02:40:38;;;;;;;6.03;1.70;;;17.40;1.00;;;;;;5074263;28;20411;-84
2023/07/25 02:49:47;;;;;;;4.53;1.73;;;17.30;1.00;;;;;;5069415;28;20579;-84
2023/07/25 02:52:13;;;;;;;6.40;2.30;;;17.30;1.00;;;;;;5072236;28;20997;-75
2023/07/25 02:54:40;;;;;;;4.47;1.90;;;17.30;1.00;;;;;;5067201;28;20268;-76
2023/07/25 02:57:23;;;;;;;4.37;2.10;;;17.40;1.00;;;;;;5073915;28;20169;-76
2023/07/25 02:59:58;;;;;;;6.37;2.20;;;17.40;1.00;;;;;;5067823;28;20450;-76
2023/07/25 03:02:40;;;;;;;6.70;2.10;;;17.40;1.00;;;;;;5072051;28;20900;-76
2023/07/25 03:05:17;;;;;;;4.40;2.20;;;17.30;1.00;;;;;;5073655;28;20418;-76
2023/07/25 03:07:43;;;;;;;5.03;2.20;;;17.40;1.00;;;;;;5074057;28;20462;-85
2023/07/25 03:14:10;;;;;;;5.50;2.43;;;17.40;1.00;;;;;;5072127;28;20381;-84
2023/07/25 03:17:10;;;;;;;6.47;2.43;;;17.40;1.00;;;;;;5074270;28;20460;-85
2023/07/25 03:22:57;;;;;;;9.63;3.20;;;17.40;1.00;;;;;;5071973;28;20428;-85
2023/07/25 03:25:28;;;;;;;3.20;2.90;;;17.40;1.00;;;;;;5072829;28;20405;-85
2023/07/25 03:28:22;;;;;;;6.77;3.60;;;17.20;1.00;;;;;;5069836;28;20181;-85
2023/07/25 03:34:46;;;;;;;6.70;4.03;;;17.30;1.00;;;;;;5077663;28;20887;-85
2023/07/25 03:37:58;;;;;;;15.83;3.50;;;17.30;1.00;;;;;;5058252;28;20438;-85
2023/07/25 03:40:46;;;;;;;8.70;4.77;;;17.20;1.00;;;;;;5056868;28;20452;-85
2023/07/25 03:44:04;;;;;;;15.60;4.30;;;17.20;1.00;;;;;;5073039;28;20416;-86
2023/07/25 03:46:47;;;;;;;5.57;4.40;;;17.20;1.00;;;;;;5073835;28;20430;-85
2023/07/25 03:52:34;;;;;;;10.33;5.20;;;17.20;1.00;;;;;;5072548;28;20420;-86
2023/07/25 03:58:28;;;;;;;11.10;6.40;;;17.20;1.00;;;;;;5058346;28;20223;-86
2023/07/25 04:01:46;;;;;;;12.03;5.90;;;17.10;1.00;;;;;;5068264;28;20404;-86
2023/07/25 04:04:40;;;;;;;7.43;6.00;;;17.10;1.00;;;;;;5074866;28;20401;-86
2023/07/25 04:07:05;;;;;;;9.20;6.03;;;17.10;1.00;;;;;;5088023;28;20516;-86
2023/07/25 04:12:58;;;;;;;13.13;6.70;;;17.10;1.00;;;;;;5077259;28;20721;-86
2023/07/25 04:18:47;;;;;;;12.10;8.27;;;17.10;1.00;;;;;;5058585;28;20412;-85
2023/07/25 04:24:34;;;;;;;13.03;8.30;;;17.10;1.00;;;;;;5069324;28;20946;-86
2023/07/25 04:27:16;;;;;;;21.13;8.33;;;17.10;1.00;;;;;;5069244;28;20401;-86
2023/07/25 04:30:22;;;;;;;16.40;8.70;;;17.10;1.00;;;;;;5069844;28;20208;-86
2023/07/25 04:32:52;;;;;;;15.17;9.30;;;17.10;1.00;;;;;;5061173;28;20428;-85
2023/07/25 04:35:18;;;;;;;20.83;9.43;;;17.10;1.00;;;;;;5073175;28;20549;-85
2023/07/25 04:37:44;;;;;;;16.00;9.30;;;17.10;1.00;;;;;;5069042;28;20476;-85
2023/07/25 04:40:17;;;;;;;24.13;10.67;;;17.10;1.00;;;;;;5074634;28;20434;-86
2023/07/25 04:42:42;;;;;;;20.00;10.13;;;17.10;1.00;;;;;;5060140;28;20203;-85
2023/07/25 04:45:11;;;;;;;15.00;10.67;;;17.20;1.00;;;;;;5073435;28;20480;-86
2023/07/25 04:47:36;;;;;;;20.90;9.87;;;17.20;1.00;;;;;;5066144;28;20220;-86
2023/07/25 04:50:05;;;;;;;16.97;9.83;;;17.20;1.00;;;;;;5066040;28;20545;-85
2023/07/25 04:52:30;;;;;;;17.33;10.27;;;17.20;1.00;;;;;;5064718;28;20282;-86
2023/07/25 04:54:59;;;;;;;22.93;10.77;;;17.20;1.00;;;;;;5073834;28;20508;-86
2023/07/25 04:57:40;;;;;;;18.37;10.60;;;17.10;1.00;;;;;;5074992;28;20192;-86
2023/07/25 05:00:07;;;;;;;19.37;10.93;;;17.20;1.00;;;;;;5058766;28;20490;-86
2023/07/25 05:02:33;;;;;;;24.90;11.33;;;17.20;1.00;;;;;;5070358;28;20446;-85
2023/07/25 05:04:59;;;;;;;17.27;11.00;;;17.30;1.00;;;;;;5073109;28;20428;-85
2023/07/25 05:07:25;;;;;;;17.03;10.07;;;17.30;1.00;;;;;;5075462;28;20451;-86
2023/07/25 05:13:12;;;;;;;17.17;10.93;;;17.30;1.00;;;;;;5071341;28;20192;-85
2023/07/25 05:15:40;;;;;;;16.73;9.63;;;17.30;1.00;;;;;;5074955;28;20440;-86
2023/07/25 05:18:12;;;;;;;18.33;10.20;;;17.30;1.00;;;;;;5061137;28;20299;-85
2023/07/25 05:20:38;;;;;;;25.10;11.10;;;17.30;1.00;;;;;;5070252;28;20572;-85
2023/07/25 05:23:04;;;;;;;18.13;10.60;;;17.20;1.00;;;;;;5066541;28;20508;-85
2023/07/25 05:25:29;;;;;;;15.30;9.80;;;17.30;1.00;;;;;;5068889;28;20196;-86
2023/07/25 05:27:55;;;;;;;19.30;10.77;;;17.30;1.00;;;;;;5064345;28;20790;-86
2023/07/25 05:30:21;;;;;;;19.37;10.40;;;17.30;1.00;;;;;;5066863;28;20199;-86
2023/07/25 05:32:48;;;;;;;19.63;9.70;;;17.40;1.00;;;;;;5059094;28;20558;-86
2023/07/25 05:35:14;;;;;;;15.53;8.70;;;17.40;1.00;;;;;;5083823;28;20209;-85
2023/07/25 05:37:39;;;;;;;14.13;8.40;;;17.30;1.00;;;;;;5070548;28;20507;-86
2023/07/25 05:40:06;;;;;;;17.37;9.23;;;17.30;1.00;;;;;;5060266;28;20272;-86
2023/07/25 05:42:32;;;;;;;16.40;10.03;;;17.30;1.00;;;;;;5071500;28;20212;-85
2023/07/25 05:44:59;;;;;;;13.37;9.23;;;17.10;1.00;;;;;;5064080;28;20412;-85
2023/07/25 05:48:16;;;;;;;15.73;9.47;;;17.10;1.00;;;;;;5072050;28;20423;-85
2023/07/25 05:51:22;;;;;;;15.37;8.63;;;17.20;1.00;;;;;;5074621;28;20551;-85
2023/07/25 06:04:42;;;;;;;14.40;8.97;;;17.20;1.00;;;;;;5073535;28;20415;-84
2023/07/25 06:07:08;;;;;;;14.13;8.90;;;17.30;1.00;;;;;;5054596;28;20423;-84
2023/07/25 06:09:52;;;;;;;13.10;9.20;;;17.30;1.00;;;;;;5064633;28;20965;-83
2023/07/25 06:15:40;;;;;;;13.00;9.87;;;17.40;1.00;;;;;;5066406;28;20499;-82
2023/07/25 06:18:28;;;;;;;15.13;9.17;;;17.40;1.00;;;;;;5067496;28;20787;-83
2023/07/25 06:24:22;;;;;;;18.33;9.20;;;17.60;1.00;;;;;;5071844;28;20425;-83
2023/07/25 06:26:58;;;;;;;17.97;9.37;;;17.60;1.00;;;;;;5068621;28;20394;-83
2023/07/25 06:32:46;;;;;;;12.83;8.20;;;17.60;1.00;;;;;;5070019;28;20438;-83
2023/07/25 06:35:12;;;;;;;14.10;8.87;;;17.60;1.00;;;;;;5074198;28;20402;-83
2023/07/25 06:37:52;;;;;;;16.50;9.20;;;17.70;1.00;;;;;;5070442;28;20662;-83
2023/07/25 06:40:52;;;;;;;22.33;8.90;;;17.70;1.00;;;;;;5068934;28;20193;-85
2023/07/25 06:43:18;;;;;;;15.60;8.53;;;17.70;1.00;;;;;;5066914;28;20411;-84
2023/07/25 06:52:40;;;;;;;16.20;9.97;;;17.80;1.00;;;;;;5067806;28;20502;-84
2023/07/25 06:55:22;;;;;;;14.10;9.30;;;17.80;1.00;;;;;;5070757;28;20406;-85
2023/07/25 06:57:48;;;;;;;13.90;9.80;;;17.80;1.00;;;;;;5069947;28;20421;-84
2023/07/25 07:00:22;;;;;;;15.77;9.43;;;17.80;1.00;;;;;;5073849;28;20782;-84
2023/07/25 07:06:10;;;;;;;14.87;9.33;;;17.70;1.00;;;;;;5073692;28;20916;-83
2023/07/25 07:08:52;;;;;;;13.73;9.07;;;17.70;1.00;;;;;;5085513;28;20448;-83
2023/07/25 07:11:52;;;;;;;14.10;9.30;;;17.70;1.00;;;;;;5073113;28;20513;-83
2023/07/25 07:14:52;;;;;;;16.87;10.33;;;17.70;1.00;;;;;;5073755;28;20406;-83
2023/07/25 07:17:53;;;;;;;16.20;8.63;;;17.70;1.00;;;;;;5059844;28;20457;-84
2023/07/25 07:20:22;;;;;;;17.33;9.77;;;17.70;1.00;;;;;;5070086;28;20434;-83
2023/07/25 07:22:48;;;;;;;17.07;8.60;;;17.70;1.00;;;;;;5071540;28;20423;-84
2023/07/25 07:25:52;;;;;;;16.00;10.50;;;17.80;1.00;;;;;;5067743;28;20409;-83
2023/07/25 07:28:29;;;;;;;15.73;9.47;;;17.80;1.00;;;;;;5061569;28;20208;-84
2023/07/25 07:31:46;;;;;;;15.93;10.20;;;17.80;1.00;;;;;;5071663;28;20439;-84
2023/07/25 07:34:52;;;;;;;15.23;9.87;;;17.80;1.00;;;;;;5068673;28;20435;-85
2023/07/25 07:41:22;;;;;;;19.23;10.20;;;17.60;1.00;;;;;;5071030;28;20402;-83
2023/07/25 07:43:58;;;;;;;12.70;9.03;;;17.60;1.00;;;;;;5064842;28;20383;-83
2023/07/25 07:46:58;;;;;;;23.70;11.20;;;17.50;1.00;;;;;;5070583;28;20963;-83
2023/07/25 07:52:52;;;;;;;19.67;10.97;;;17.40;1.00;;;;;;5072243;28;20402;-82
2023/07/25 07:55:52;;;;;;;16.97;9.70;;;17.40;1.00;;;;;;5087412;28;20904;-86
2023/07/25 07:58:52;;;;;;;21.20;9.90;;;17.50;1.00;;;;;;5073482;28;20513;-85
2023/07/25 08:01:29;;;;;;;18.47;9.87;;;17.50;1.00;;;;;;5066728;28;20424;-84
2023/07/25 08:07:16;;;;;;;17.60;8.43;;;17.30;1.00;;;;;;5053894;28;20489;-85
2023/07/25 08:09:52;;;;;;;15.20;9.77;;;17.20;1.00;;;;;;5069178;28;20494;-84
2023/07/25 08:12:17;;;;;;;17.60;10.30;;;17.10;1.00;;;;;;5074803;28;20184;-85
2023/07/25 08:18:16;;;;;;;19.63;9.40;;;17.20;1.00;;;;;;5077066;28;20200;-85
2023/07/25 08:20:57;;;;;;;17.00;10.47;;;17.50;1.00;;;;;;5075579;28;20435;-85
2023/07/25 08:23:52;;;;;;;15.90;9.90;;;17.60;1.00;;;;;;5075426;28;20449;-86
2023/07/25 08:26:22;;;;;;;14.33;10.07;;;17.90;1.00;;;;;;5076597;28;20395;-82
2023/07/25 08:29:22;;;;;;;16.73;9.60;;;18.10;1.00;;;;;;5061903;28;20829;-83
2023/07/25 08:31:53;;;;;;;11.00;8.40;;;18.50;1.00;;;;;;5076570;28;20818;-83
2023/07/25 08:34:23;;;;;;;10.90;8.03;;;18.50;1.00;;;;;;5070516;28;20456;-83
2023/07/25 08:37:10;;;;;;;16.87;9.80;;;18.60;1.00;;;;;;5068266;28;20398;-83
2023/07/25 08:39:52;;;;;;;11.07;7.90;;;18.80;1.00;;;;;;5076899;28;20427;-85
2023/07/25 08:42:56;;;;;;;10.87;7.37;;;18.90;1.00;;;;;;5069659;28;20494;-85
2023/07/25 08:45:42;;;;;;;9.10;6.90;;;18.90;1.00;;;;;;5072829;28;20418;-84
2023/07/25 08:48:52;;;;;;;11.90;7.10;;;18.90;1.00;;;;;;5075122;28;20490;-85
2023/07/25 08:51:53;;;;;;;11.47;6.47;;;18.80;1.00;;;;;;5074617;28;20428;-86
2023/07/25 08:54:22;;;;;;;7.30;5.67;;;18.40;1.00;;;;;;5072234;28;20467;-84
2023/07/25 08:56:53;;;;;;;5.67;4.90;;;18.40;1.00;;;;;;5075408;28;20566;-84
2023/07/25 08:59:24;;;;;;;9.50;5.13;;;18.20;1.00;;;;;;5075710;28;20420;-84
2023/07/25 09:02:22;;;;;;;6.90;5.07;;;18.10;1.00;;;;;;5076281;28;20388;-84
2023/07/25 09:05:10;;;;;;;7.90;4.73;;;18.00;1.00;;;;;;5064883;28;20436;-85
2023/07/25 09:07:36;;;;;;;12.20;5.57;;;17.90;1.00;;;;;;5069413;28;20423;-84
2023/07/25 09:10:22;;;;;;;13.23;5.27;;;17.70;1.00;;;;;;5065953;28;20494;-83
2023/07/25 09:12:53;;;;;;;11.77;5.67;;;17.60;1.00;;;;;;5070417;28;20412;-83
2023/07/25 09:15:23;;;;;;;9.00;6.10;;;17.60;1.00;;;;;;5079255;28;20424;-83
2023/07/25 09:17:53;;;;;;;6.87;5.40;;;17.60;1.00;;;;;;5075314;28;20462;-83
2023/07/25 09:20:52;;;;;;;12.23;5.63;;;17.60;1.00;;;;;;5075358;28;20395;-83
2023/07/25 09:23:23;;;;;;;8.27;5.47;;;17.60;1.00;;;;;;5071796;28;20482;-83
2023/07/25 09:26:04;;;;;;;22.23;5.57;;;17.70;1.00;;;;;;5062373;28;20451;-85
2023/07/25 09:28:54;;;;;;;9.17;6.07;;;17.80;1.00;;;;;;5073169;28;20424;-84
2023/07/25 09:31:24;;;;;;;6.67;5.43;;;18.10;1.00;;;;;;5067890;28;20443;-84
2023/07/25 09:34:23;;;;;;;6.27;4.70;;;18.30;1.00;;;;;;5071930;28;20424;-84
2023/07/25 09:36:52;;;;;;;6.23;4.90;;;18.40;1.00;;;;;;5077249;28;20441;-85
2023/07/25 09:39:23;;;;;;;4.60;4.13;;;18.60;1.00;;;;;;5082785;28;20424;-84
2023/07/25 09:41:53;;;;;;;4.90;3.83;;;19.00;1.00;;;;;;5074553;28;20902;-83
2023/07/25 09:44:23;;;;;;;8.37;4.67;;;19.00;1.00;;;;;;5073829;28;20475;-83
2023/07/25 09:47:25;;;;;;;6.00;4.40;;;19.10;1.00;;;;;;5075093;28;20386;-83
2023/07/25 09:49:59;;;;;;;5.27;4.30;;;19.20;1.00;;;;;;5075067;28;20460;-83
2023/07/25 09:52:52;;;;;;;4.83;4.37;;;19.20;1.00;;;;;;5064893;28;20946;-83
2023/07/25 09:55:23;;;;;;;5.97;4.90;;;19.20;1.00;;;;;;5055730;28;20404;-84
2023/07/25 09:57:53;;;;;;;5.00;4.50;;;19.20;1.00;;;;;;5067954;28;20450;-84
2023/07/25 10:00:52;;;;;;;5.20;4.33;;;19.20;1.00;;;;;;5062038;28;20440;-84
2023/07/25 10:03:20;;;;;;;6.17;4.70;;;19.10;1.00;;;;;;5074957;28;20455;-85
2023/07/25 10:05:53;;;;;;;5.10;4.70;;;19.10;1.00;;;;;;5060607;28;20420;-85
2023/07/25 10:08:20;;;;;;;5.70;5.20;;;19.00;1.00;;;;;;5068017;28;20519;-74
2023/07/25 10:10:55;;;;;;;5.00;4.50;;;19.00;1.00;;;;;;5070775;28;20488;-81
2023/07/25 10:13:23;;;;;;;5.20;4.70;;;19.00;1.00;;;;;;5071058;28;20431;-81
2023/07/25 10:16:28;;;;;;;4.83;4.43;;;19.00;1.00;;;;;;5074354;28;20913;-81
2023/07/25 10:19:16;;;;;;;7.10;4.20;;;19.00;1.00;;;;;;5074078;28;20759;-80
2023/07/25 10:22:22;;;;;;;6.03;4.10;;;19.30;1.00;;;;;;5066381;28;20425;-80
2023/07/25 10:25:17;;;;;;;3.90;3.60;;;19.60;1.00;;;;;;5054126;28;20434;-80
2023/07/25 10:31:19;;;;;;;3.90;3.60;;;20.10;1.00;;;;;;5069048;28;20448;-81
2023/07/25 10:34:41;;;;;;;3.47;3.17;;;20.50;1.00;;;;;;5062554;28;20414;-81
2023/07/25 10:37:58;;;;;;;4.23;3.90;;;20.70;1.00;;;;;;5073712;28;20517;-81
2023/07/25 10:40:51;;;;;;;4.87;3.27;;;21.00;1.00;;;;;;5054389;28;20387;-80
2023/07/25 10:46:39;;;;;;;10.63;3.60;;;21.60;1.00;;;;;;5062176;28;20406;-81
2023/07/25 10:49:17;;;;;;;8.77;2.93;;;22.10;1.00;;;;;;5068855;28;20468;-81
2023/07/25 10:59:02;;;;;;;6.23;3.10;;;22.60;1.00;;;;;;5062852;28;20452;-80
2023/07/25 11:15:29;;;;;;;6.10;2.60;;;22.50;1.00;;;;;;5073501;28;20384;-81
2023/07/25 11:21:20;;;;;;;1.83;1.73;;;;;;;;;;5060998;28;20400;-81
2023/07/25 11:24:03;;;;;;;1.40;1.40;;;22.90;1.00;;;;;;5070007;28;20797;-79
2023/07/25 11:29:51;;;;;;;3.00;2.00;;;;;;;;;;5071309;28;20445;-91
2023/07/25 11:32:18;;;;;;;1.60;1.50;;;23.60;1.00;;;;;;5067603;28;20493;-91
2023/07/25 11:38:06;;;;;;;1.50;1.40;;;;;;;;;;5067839;28;20388;-90
2023/07/25 11:40:40;;;;;;;1.37;1.27;;;23.80;1.00;;;;;;5073160;28;20419;-90
2023/07/25 11:43:40;;;;;;;2.40;1.30;;;23.90;1.00;;;;;;5055327;28;20494;-91
2023/07/25 11:46:14;;;;;;;1.50;1.40;;;23.80;1.00;;;;;;5071463;28;20434;-91
2023/07/25 11:52:14;;;;;;;2.20;1.20;;;24.10;1.00;;;;;;5077994;28;20763;-91
2023/07/25 11:54:46;;;;;;;4.20;1.20;;;24.10;1.00;;;;;;5068380;28;20503;-90
2023/07/25 12:00:54;;;;;;;1.53;1.10;;;24.10;1.00;;;;;;5076384;28;20427;-86
2023/07/25 12:06:41;;;;;;;4.43;1.20;;;24.20;1.00;;;;;;5077224;28;20453;-86
2023/07/25 12:09:34;;;;;;;1.43;1.33;;;24.40;1.00;;;;;;5075080;28;20479;-85
2023/07/25 12:25:28;;;;;;;1.50;1.40;;;24.80;1.00;;;;;;5070248;28;20406;-86
2023/07/25 12:28:23;;;;;;;1.03;1.03;;;25.30;1.00;;;;;;5072608;28;20439;-86
2023/07/25 12:31:17;;;;;;;1.30;1.20;;;25.30;1.00;;;;;;5074163;28;20225;-86
2023/07/25 12:40:52;;;;;;;4.73;1.30;;;25.40;1.00;;;;;;5070063;28;20435;-87
2023/07/25 12:46:40;;;;;;;1.23;1.13;;;25.40;1.00;;;;;;5057783;28;20446;-87
2023/07/25 12:52:28;;;;;;;1.57;1.30;;;25.90;1.00;;;;;;5064592;28;20177;-87
2023/07/25 12:58:23;;;;;;;2.30;1.40;;;25.60;1.00;;;;;;5062867;28;20232;-90
2023/07/25 13:04:11;;;;;;;6.10;1.30;;;25.60;1.00;;;;;;5070338;28;20420;-91
2023/07/25 13:06:45;;;;;;;3.20;1.40;;;25.70;1.00;;;;;;5066779;28;20481;-90
2023/07/25 13:20:06;;;;;;;2.13;1.50;;;25.70;1.00;;;;;;5068855;28;20437;-87
2023/07/25 13:25:55;;;;;;;3.40;1.47;;;25.30;1.00;;;;;;5065573;28;20433;-84
2023/07/25 13:29:16;;;;;;;3.47;1.27;;;25.10;1.00;;;;;;5075284;28;20433;-86
2023/07/25 13:35:04;;;;;;;2.40;1.30;;;25.10;1.00;;;;;;5073833;28;20439;-86
2023/07/25 13:37:47;;;;;;;1.40;1.30;;;25.10;1.00;;;;;;5073313;28;20438;-85
2023/07/25 13:40:17;;;;;;;3.13;1.77;;;25.20;1.00;;;;;;5068010;28;20425;-86
2023/07/25 13:46:06;;;;;;;1.70;1.60;;;24.40;1.00;;;;;;5065093;28;21060;-89
2023/07/25 13:51:54;;;;;;;1.93;1.70;;;23.30;1.00;;;;;;5075380;28;20429;-87
2023/07/25 13:54:40;;;;;;;1.67;1.57;;;22.70;1.00;;;;;;5064415;28;20426;-86
2023/07/25 14:01:16;;;;;;;4.00;2.30;;;22.00;1.00;;;;;;5064405;28;21076;-87
2023/07/25 14:07:04;;;;;;;2.07;1.90;;;21.40;1.00;;;;;;5066009;28;20394;-88
2023/07/25 14:09:30;;;;;;;4.23;2.00;;;21.10;1.00;;;;;;5073297;28;20437;-88
2023/07/25 14:18:40;;;;;;;2.00;1.90;;;21.00;1.00;;;;;;5064947;28;20414;-82
2023/07/25 14:24:29;;;;;;;5.00;2.27;;;21.50;1.00;;;;;;5072944;28;20194;-82
2023/07/25 14:26:59;;;;;;;3.20;2.27;;;21.90;1.00;;;;;;5064975;28;20436;-81
2023/07/25 14:32:46;;;;;;;2.80;2.10;;;22.50;1.00;;;;;;5072961;28;20417;-82
2023/07/25 14:35:52;;;;;;;5.20;2.20;;;22.90;1.00;;;;;;5071537;28;20426;-84
2023/07/25 14:38:18;;;;;;;2.20;1.83;;;23.20;1.00;;;;;;5058630;28;20571;-82
2023/07/25 14:44:34;;;;;;;2.50;2.17;;;23.90;1.00;;;;;;5073398;28;20569;-84
2023/07/25 14:47:47;;;;;;;5.60;2.07;;;24.00;1.00;;;;;;5067956;28;20436;-83
2023/07/25 14:50:41;;;;;;;3.73;2.40;;;24.40;1.00;;;;;;5073647;28;20467;-83
2023/07/25 14:53:40;;;;;;;5.10;2.43;;;24.70;1.00;;;;;;5054061;28;20397;-82
2023/07/25 14:56:17;;;;;;;2.97;2.03;;;24.70;1.00;;;;;;5074109;28;20493;-82
2023/07/25 14:58:47;;;;;;;3.20;2.10;;;24.60;1.00;;;;;;5072724;28;20467;-81
2023/07/25 15:07:56;;;;;;;4.50;2.07;;;24.50;1.00;;;;;;5073185;28;20488;-81
2023/07/25 15:10:22;;;;;;;6.10;2.50;;;24.50;1.00;;;;;;5070943;28;20498;-81
2023/07/25 15:19:31;;;;;;;3.37;2.10;;;24.40;1.00;;;;;;5065668;28;20426;-88
2023/07/25 15:21:57;;;;;;;1.90;1.80;;;24.30;1.00;;;;;;5058267;28;20421;-90
2023/07/25 15:27:45;;;;;;;2.73;2.20;;;24.10;1.00;;;;;;5073371;28;20192;-93
2023/07/25 15:31:04;;;;;;;4.37;2.40;;;24.10;1.00;;;;;;5077011;28;20455;-89
2023/07/25 15:34:04;;;;;;;2.77;1.97;;;24.00;1.00;;;;;;5068442;28;20181;-89
2023/07/25 15:43:14;;;;;;;4.50;2.27;;;23.80;1.00;;;;;;5074220;28;20406;-81
2023/07/25 15:49:17;;;;;;;4.20;2.37;;;23.90;1.00;;;;;;5062242;28;20240;-83
2023/07/25 15:51:54;;;;;;;4.47;1.80;;;23.90;1.00;;;;;;5059034;28;20425;-82
2023/07/25 15:54:35;;;;;;;2.20;1.70;;;23.70;1.00;;;;;;5061359;28;20455;-83
2023/07/25 15:57:34;;;;;;;4.33;2.20;;;23.80;1.00;;;;;;5072018;28;20939;-83
2023/07/25 16:03:29;;;;;;;5.63;2.23;;;23.90;1.00;;;;;;5072145;28;20426;-88
2023/07/25 16:06:45;;;;;;;5.43;1.90;;;23.90;1.00;;;;;;5065936;28;20932;-87
2023/07/25 16:12:34;;;;;;;2.20;2.00;;;24.00;1.00;;;;;;5073855;28;20427;-96
2023/07/25 16:25:06;;;;;;;2.90;2.57;;;23.40;1.00;;;;;;5065134;28;20414;-84
2023/07/25 16:28:22;;;;;;;3.13;1.80;;;23.10;1.00;;;;;;5079663;28;20420;-85
2023/07/25 16:30:48;;;;;;;2.63;2.40;;;22.70;1.00;;;;;;5066307;28;20294;-85
2023/07/25 16:36:41;;;;;;;3.63;1.90;;;22.30;1.00;;;;;;5056310;28;20671;-83
2023/07/25 16:39:46;;;;;;;5.33;2.50;;;22.20;1.00;;;;;;5063253;28;20424;-83
2023/07/25 16:45:41;;;;;;;2.60;2.23;;;21.90;1.00;;;;;;5076032;28;20915;-87
2023/07/25 16:51:52;;;;;;;15.33;2.97;;;21.20;1.00;;;;;;5069945;28;20429;-92
2023/07/25 16:55:04;;;;;;;4.80;2.87;;;21.00;1.00;;;;;;5069830;28;20432;-90
2023/07/25 16:58:22;;;;;;;4.63;2.53;;;21.00;1.00;;;;;;5064571;28;20435;-92
2023/07/25 17:04:10;;;;;;;9.70;2.87;;;20.50;1.00;;;;;;5076521;28;20403;-91
2023/07/25 17:06:46;;;;;;;6.40;2.60;;;20.40;1.00;;;;;;5092396;28;20399;-92
2023/07/25 17:09:11;;;;;;;4.03;2.33;;;20.40;1.00;;;;;;5062405;28;20269;-93
2023/07/25 17:18:21;;;;;;;2.93;2.13;;;20.00;1.00;;;;;;5073765;28;20476;-85
2023/07/25 17:20:47;;;;;;;3.00;1.90;;;20.00;1.00;;;;;;5062959;28;20475;-87
2023/07/25 17:29:56;;;;;;;2.50;1.70;;;19.90;1.00;;;;;;5075194;28;20549;-85
2023/07/25 17:32:41;;;;;;;3.83;1.60;;;19.90;1.00;;;;;;5087868;28;20473;-87
2023/07/25 17:35:46;;;;;;;6.83;2.27;;;19.90;1.00;;;;;;5071605;28;20681;-86
2023/07/25 17:41:34;;;;;;;10.50;2.30;;;19.80;1.00;;;;;;5074769;28;20396;-84
2023/07/25 17:47:21;;;;;;;4.13;1.63;;;19.70;1.00;;;;;;5054357;28;20202;-83
2023/07/25 17:50:16;;;;;;;5.60;2.10;;;19.60;1.00;;;;;;5059277;28;20453;-83
2023/07/25 17:53:04;;;;;;;3.17;2.13;;;19.30;1.00;;;;;;5072699;28;20639;-83
2023/07/25 17:55:42;;;;;;;6.20;2.17;;;19.30;1.00;;;;;;5073684;28;20421;-83
2023/07/25 17:58:12;;;;;;;10.90;2.50;;;19.30;1.00;;;;;;5067878;28;20459;-86
2023/07/25 18:07:04;;;;;;;4.80;2.37;;;19.10;1.00;;;;;;5074659;28;20549;-85
2023/07/25 18:09:52;;;;;;;5.17;2.47;;;19.10;1.00;;;;;;5072379;28;20491;-84
2023/07/25 18:12:29;;;;;;;2.63;1.90;;;;;;;;;;5065274;28;20435;-85
2023/07/25 18:28:52;;;;;;;3.47;2.00;;;18.90;1.00;;;;;;5068094;28;20403;-84
2023/07/25 18:31:35;;;;;;;3.63;1.90;;;18.80;1.00;;;;;;5070668;28;20506;-94
2023/07/25 18:34:05;;;;;;;4.57;2.37;;;18.70;1.00;;;;;;5074087;28;20413;-90
2023/07/25 18:39:59;;;;;;;4.30;2.23;;;18.70;1.00;;;;;;5074455;28;20413;-84
2023/07/25 18:49:08;;;;;;;4.93;2.03;;;18.50;1.00;;;;;;5072663;28;20451;-88
2023/07/25 18:51:52;;;;;;;4.70;1.87;;;18.50;1.00;;;;;;5072680;28;20456;-86
2023/07/25 18:54:46;;;;;;;3.53;2.03;;;18.40;1.00;;;;;;5071973;28;20786;-86
2023/07/25 18:57:40;;;;;;;6.10;2.07;;;18.50;1.00;;;;;;5072137;28;20447;-87
2023/07/25 19:03:28;;;;;;;4.57;2.07;;;18.40;1.00;;;;;;5066049;28;20882;-85
2023/07/25 19:06:45;;;;;;;3.73;1.90;;;18.40;1.00;;;;;;5055898;28;20410;-84
2023/07/25 19:19:40;;;;;;;6.93;1.90;;;18.20;1.00;;;;;;5072977;28;20398;-78
2023/07/25 19:22:11;;;;;;;6.40;2.03;;;18.20;1.00;;;;;;5067138;28;20438;-75
2023/07/25 19:24:41;;;;;;;5.70;2.20;;;18.10;1.00;;;;;;5064040;28;20463;-75
2023/07/25 19:27:07;;;;;;;7.40;2.37;;;18.10;1.00;;;;;;5062906;28;20456;-75
2023/07/25 19:29:34;;;;;;;5.30;2.10;;;18.10;1.00;;;;;;5066637;28;20483;-75
2023/07/25 19:48:54;;;;;;;2.20;1.27;;;17.70;1.00;;;;;;5057242;28;20429;-75
2023/07/25 19:51:23;;;;;;;3.33;1.57;;;17.70;1.00;;;;;;5067955;28;20579;-75
2023/07/25 19:53:50;;;;;;;7.13;1.40;;;17.60;1.00;;;;;;5073051;28;20174;-76
2023/07/25 19:56:30;;;;;;;1.87;1.70;;;17.60;1.00;;;;;;5060060;28;20938;-75
2023/07/25 19:58:57;;;;;;;8.00;1.57;;;17.60;1.00;;;;;;5073184;28;20413;-75
2023/07/25 20:01:23;;;;;;;1.83;1.50;;;17.60;1.00;;;;;;5062284;28;20880;-75
2023/07/25 20:04:16;;;;;;;4.10;1.73;;;17.60;1.00;;;;;;5072753;28;20428;-86
2023/07/25 20:06:46;;;;;;;6.07;1.87;;;17.60;1.00;;;;;;5062781;28;20177;-86
2023/07/25 20:09:34;;;;;;;4.77;1.40;;;17.50;1.00;;;;;;5073679;28;20968;-86
2023/07/25 20:18:47;;;;;;;2.10;1.70;;;17.40;1.00;;;;;;5068785;28;20549;-75
2023/07/25 20:21:15;;;;;;;1.77;1.50;;;17.30;1.00;;;;;;5075761;28;20432;-76
2023/07/25 20:23:47;;;;;;;3.60;2.07;;;17.30;1.00;;;;;;5066149;28;20584;-76
2023/07/25 20:26:13;;;;;;;5.03;1.70;;;17.30;1.00;;;;;;5073613;28;20408;-75
2023/07/25 20:28:47;;;;;;;10.60;1.87;;;17.30;1.00;;;;;;5064060;28;20525;-75